createdAt,value
2022-12-04T00:00:21.053Z,1016.33
2022-12-04T00:01:21.009Z,1016.34
2022-12-04T00:02:21.032Z,1016.36
2022-12-04T00:03:21.091Z,1016.36
2022-12-04T00:04:21.041Z,1016.40
2022-12-04T00:05:20.973Z,1016.39
2022-12-04T00:06:20.959Z,1016.36
2022-12-04T00:07:20.973Z,1016.38
2022-12-04T00:08:20.927Z,1016.37
2022-12-04T00:09:20.922Z,1016.41
2022-12-04T00:10:20.913Z,1016.38
2022-12-04T00:11:20.898Z,1016.43
2022-12-04T00:12:20.924Z,1016.45
2022-12-04T00:13:20.875Z,1016.46
2022-12-04T00:14:20.899Z,1016.50
2022-12-04T00:15:25.983Z,1016.46
2022-12-04T00:16:21.933Z,1016.50
2022-12-04T00:17:20.829Z,1016.48
2022-12-04T00:18:20.863Z,1016.49
2022-12-04T00:19:20.805Z,1016.46
2022-12-04T00:20:20.812Z,1016.46
2022-12-04T00:21:20.815Z,1016.50
2022-12-04T00:22:20.771Z,1016.42
2022-12-04T00:23:20.765Z,1016.42
2022-12-04T00:24:20.790Z,1016.45
2022-12-04T00:25:20.743Z,1016.46
2022-12-04T00:26:20.750Z,1016.43
2022-12-04T00:27:20.724Z,1016.40
2022-12-04T00:28:20.710Z,1016.36
2022-12-04T00:29:20.713Z,1016.37
2022-12-04T00:30:20.719Z,1016.33
2022-12-04T00:31:20.713Z,1016.31
2022-12-04T00:32:20.696Z,1016.31
2022-12-04T00:33:20.703Z,1016.31
2022-12-04T00:34:20.654Z,1016.31
2022-12-04T00:35:20.641Z,1016.29
2022-12-04T00:36:20.660Z,1016.34
2022-12-04T00:37:20.619Z,1016.35
2022-12-04T00:38:20.617Z,1016.35
2022-12-04T00:39:20.590Z,1016.35
2022-12-04T00:40:20.624Z,1016.34
2022-12-04T00:41:20.599Z,1016.34
2022-12-04T00:42:20.566Z,1016.31
2022-12-04T00:43:20.563Z,1016.33
2022-12-04T00:44:20.550Z,1016.29
2022-12-04T00:45:20.574Z,1016.27
2022-12-04T00:46:20.645Z,1016.29
2022-12-04T00:47:20.519Z,1016.27
2022-12-04T00:48:20.518Z,1016.28
2022-12-04T00:49:20.503Z,1016.26
2022-12-04T00:50:20.516Z,1016.29
2022-12-04T00:51:20.459Z,1016.27
2022-12-04T00:52:20.458Z,1016.30
2022-12-04T00:53:20.459Z,1016.28
2022-12-04T00:54:20.453Z,1016.33
2022-12-04T00:55:20.449Z,1016.30
2022-12-04T00:56:20.448Z,1016.32
2022-12-04T00:57:20.400Z,1016.29
2022-12-04T00:58:20.390Z,1016.31
2022-12-04T00:59:20.385Z,1016.28
2022-12-04T01:00:20.370Z,1016.30
2022-12-04T01:01:20.613Z,1016.27
2022-12-04T01:02:20.403Z,1016.30
2022-12-04T01:03:20.406Z,1016.31
2022-12-04T01:04:20.337Z,1016.30
2022-12-04T01:05:20.317Z,1016.31
2022-12-04T01:06:20.339Z,1016.27
2022-12-04T01:07:20.328Z,1016.28
2022-12-04T01:08:20.316Z,1016.31
2022-12-04T01:09:20.291Z,1016.32
2022-12-04T01:10:20.265Z,1016.28
2022-12-04T01:11:20.260Z,1016.29
2022-12-04T01:12:21.126Z,1016.31
2022-12-04T01:13:20.325Z,1016.25
2022-12-04T01:14:20.228Z,1016.27
2022-12-04T01:15:20.229Z,1016.31
2022-12-04T01:16:20.307Z,1016.28
2022-12-04T01:17:20.184Z,1016.28
2022-12-04T01:18:20.194Z,1016.27
2022-12-04T01:19:20.169Z,1016.32
2022-12-04T01:20:20.177Z,1016.24
2022-12-04T01:21:20.148Z,1016.28
2022-12-04T01:22:20.124Z,1016.30
2022-12-04T01:23:20.142Z,1016.27
2022-12-04T01:24:20.143Z,1016.27
2022-12-04T01:25:20.111Z,1016.27
2022-12-04T01:26:20.099Z,1016.27
2022-12-04T01:27:20.082Z,1016.26
2022-12-04T01:28:20.073Z,1016.29
2022-12-04T01:29:20.125Z,1016.29
2022-12-04T01:30:20.114Z,1016.32
2022-12-04T01:31:20.117Z,1016.30
2022-12-04T01:32:20.082Z,1016.28
2022-12-04T01:33:20.007Z,1016.25
2022-12-04T01:34:20.037Z,1016.24
2022-12-04T01:35:19.998Z,1016.29
2022-12-04T01:36:19.990Z,1016.23
2022-12-04T01:37:19.966Z,1016.25
2022-12-04T01:38:19.992Z,1016.20
2022-12-04T01:39:20.036Z,1016.17
2022-12-04T01:40:19.968Z,1016.14
2022-12-04T01:41:19.958Z,1016.15
2022-12-04T01:42:19.924Z,1016.15
2022-12-04T01:43:19.905Z,1016.12
2022-12-04T01:44:19.897Z,1016.11
2022-12-04T01:45:19.923Z,1016.15
2022-12-04T01:46:19.967Z,1016.13
2022-12-04T01:47:19.869Z,1016.12
2022-12-04T01:48:19.856Z,1016.17
2022-12-04T01:49:19.845Z,1016.15
2022-12-04T01:51:29.208Z,1016.10
2022-12-04T01:52:29.162Z,1016.10
2022-12-04T01:53:29.160Z,1016.10
2022-12-04T01:54:29.203Z,1016.09
2022-12-04T01:55:29.161Z,1016.10
2022-12-04T01:56:29.156Z,1016.06
2022-12-04T01:57:29.126Z,1016.08
2022-12-04T01:58:29.107Z,1016.05
2022-12-04T01:59:29.098Z,1016.10
2022-12-04T02:00:29.082Z,1016.05
2022-12-04T02:01:29.148Z,1015.99
2022-12-04T02:02:29.207Z,1016.04
2022-12-04T02:03:29.048Z,1016.05
2022-12-04T02:04:29.032Z,1016.02
2022-12-04T02:05:29.021Z,1016.01
2022-12-04T02:06:29.040Z,1016.06
2022-12-04T02:07:29.139Z,1016.06
2022-12-04T02:08:29.015Z,1016.04
2022-12-04T02:09:28.975Z,1016.03
2022-12-04T02:10:28.973Z,1016.01
2022-12-04T02:11:28.981Z,1016.05
2022-12-04T02:12:28.942Z,1015.99
2022-12-04T02:13:28.933Z,1016.03
2022-12-04T02:14:28.924Z,1015.98
2022-12-04T02:15:28.907Z,1015.98
2022-12-04T02:16:28.941Z,1015.95
2022-12-04T02:17:28.900Z,1015.93
2022-12-04T02:18:28.901Z,1015.88
2022-12-04T02:19:28.897Z,1015.87
2022-12-04T02:20:28.856Z,1015.88
2022-12-04T02:21:28.859Z,1015.90
2022-12-04T02:22:28.833Z,1015.89
2022-12-04T02:23:28.840Z,1015.91
2022-12-04T02:24:28.831Z,1015.90
2022-12-04T02:25:28.812Z,1015.95
2022-12-04T02:26:28.803Z,1015.94
2022-12-04T02:27:28.781Z,1015.90
2022-12-04T02:28:28.777Z,1015.88
2022-12-04T02:29:28.755Z,1015.92
2022-12-04T02:30:28.839Z,1015.91
2022-12-04T02:31:28.740Z,1015.90
2022-12-04T02:32:28.727Z,1015.85
2022-12-04T02:33:28.715Z,1015.84
2022-12-04T02:34:28.706Z,1015.83
2022-12-04T02:35:28.706Z,1015.82
2022-12-04T02:36:28.697Z,1015.83
2022-12-04T02:37:28.694Z,1015.77
2022-12-04T02:38:28.665Z,1015.79
2022-12-04T02:39:28.670Z,1015.84
2022-12-04T02:40:28.668Z,1015.86
2022-12-04T02:41:28.634Z,1015.87
2022-12-04T02:42:28.620Z,1015.86
2022-12-04T02:43:28.616Z,1015.85
2022-12-04T02:44:28.601Z,1015.87
2022-12-04T02:45:28.638Z,1015.84
2022-12-04T02:46:28.686Z,1015.82
2022-12-04T02:47:28.575Z,1015.80
2022-12-04T02:48:28.558Z,1015.79
2022-12-04T02:49:28.548Z,1015.80
2022-12-04T02:50:28.538Z,1015.76
2022-12-04T02:51:28.536Z,1015.74
2022-12-04T02:52:28.505Z,1015.74
2022-12-04T02:53:28.500Z,1015.78
2022-12-04T02:54:28.485Z,1015.75
2022-12-04T02:55:28.494Z,1015.75
2022-12-04T02:56:28.475Z,1015.68
2022-12-04T02:57:28.452Z,1015.66
2022-12-04T02:58:28.462Z,1015.64
2022-12-04T02:59:28.440Z,1015.59
2022-12-04T03:00:28.427Z,1015.58
2022-12-04T03:01:28.473Z,1015.60
2022-12-04T03:02:28.485Z,1015.64
2022-12-04T03:03:28.407Z,1015.58
2022-12-04T03:04:28.386Z,1015.58
2022-12-04T03:05:28.367Z,1015.55
2022-12-04T03:06:28.369Z,1015.51
2022-12-04T03:07:28.396Z,1015.54
2022-12-04T03:08:28.363Z,1015.53
2022-12-04T03:09:28.331Z,1015.47
2022-12-04T03:10:28.315Z,1015.53
2022-12-04T03:11:28.331Z,1015.51
2022-12-04T03:12:28.294Z,1015.49
2022-12-04T03:13:28.288Z,1015.48
2022-12-04T03:14:28.288Z,1015.50
2022-12-04T03:15:28.269Z,1015.52
2022-12-04T03:16:28.315Z,1015.48
2022-12-04T03:17:28.245Z,1015.53
2022-12-04T03:18:28.233Z,1015.57
2022-12-04T03:19:28.218Z,1015.54
2022-12-04T03:20:28.219Z,1015.59
2022-12-04T03:21:28.203Z,1015.61
2022-12-04T03:22:28.183Z,1015.55
2022-12-04T03:23:28.178Z,1015.53
2022-12-04T03:24:28.169Z,1015.52
2022-12-04T03:25:28.175Z,1015.50
2022-12-04T03:26:28.172Z,1015.53
2022-12-04T03:27:28.152Z,1015.46
2022-12-04T03:28:28.123Z,1015.49
2022-12-04T03:29:28.128Z,1015.50
2022-12-04T03:30:28.133Z,1015.51
2022-12-04T03:31:28.093Z,1015.54
2022-12-04T03:32:28.074Z,1015.52
2022-12-04T03:33:28.071Z,1015.58
2022-12-04T03:34:28.061Z,1015.54
2022-12-04T03:35:28.063Z,1015.58
2022-12-04T03:36:28.035Z,1015.53
2022-12-04T03:37:28.031Z,1015.49
2022-12-04T03:38:28.018Z,1015.57
2022-12-04T03:39:28.007Z,1015.57
2022-12-04T03:40:28.011Z,1015.57
2022-12-04T03:41:27.987Z,1015.57
2022-12-04T03:42:27.965Z,1015.57
2022-12-04T03:43:28.006Z,1015.59
2022-12-04T03:44:29.524Z,1015.58
2022-12-04T03:45:27.946Z,1015.56
2022-12-04T03:46:27.994Z,1015.57
2022-12-04T03:47:27.915Z,1015.68
2022-12-04T03:48:27.918Z,1015.65
2022-12-04T03:49:27.902Z,1015.66
2022-12-04T03:50:27.889Z,1015.66
2022-12-04T03:51:27.904Z,1015.64
2022-12-04T03:52:27.861Z,1015.60
2022-12-04T03:53:27.858Z,1015.52
2022-12-04T03:54:27.850Z,1015.54
2022-12-04T03:55:27.826Z,1015.59
2022-12-04T03:56:27.823Z,1015.53
2022-12-04T03:57:27.814Z,1015.55
2022-12-04T03:58:27.793Z,1015.59
2022-12-04T03:59:27.863Z,1015.57
2022-12-04T04:00:27.775Z,1015.64
2022-12-04T04:01:27.815Z,1015.56
2022-12-04T04:02:27.812Z,1015.54
2022-12-04T04:03:27.757Z,1015.56
2022-12-04T04:04:27.745Z,1015.50
2022-12-04T04:05:27.747Z,1015.48
2022-12-04T04:06:27.717Z,1015.42
2022-12-04T04:07:33.337Z,1015.47
2022-12-04T04:08:28.776Z,1015.47
2022-12-04T04:09:27.683Z,1015.42
2022-12-04T04:10:27.680Z,1015.41
2022-12-04T04:11:27.684Z,1015.40
2022-12-04T04:12:27.649Z,1015.43
2022-12-04T04:13:27.645Z,1015.33
2022-12-04T04:14:27.622Z,1015.36
2022-12-04T04:15:27.713Z,1015.31
2022-12-04T04:16:27.656Z,1015.31
2022-12-04T04:17:27.590Z,1015.37
2022-12-04T04:18:27.583Z,1015.35
2022-12-04T04:19:27.579Z,1015.38
2022-12-04T04:20:27.603Z,1015.42
2022-12-04T04:21:27.552Z,1015.36
2022-12-04T04:22:27.550Z,1015.37
2022-12-04T04:23:27.531Z,1015.42
2022-12-04T04:24:27.531Z,1015.34
2022-12-04T04:25:27.531Z,1015.34
2022-12-04T04:26:27.508Z,1015.40
2022-12-04T04:27:27.493Z,1015.35
2022-12-04T04:28:27.479Z,1015.39
2022-12-04T04:29:27.478Z,1015.43
2022-12-04T04:30:27.456Z,1015.44
2022-12-04T04:31:27.552Z,1015.44
2022-12-04T04:32:27.429Z,1015.42
2022-12-04T04:33:27.420Z,1015.42
2022-12-04T04:34:27.421Z,1015.40
2022-12-04T04:35:27.405Z,1015.38
2022-12-04T04:36:27.411Z,1015.36
2022-12-04T04:37:27.383Z,1015.33
2022-12-04T04:38:27.372Z,1015.31
2022-12-04T04:39:27.352Z,1015.29
2022-12-04T04:40:27.340Z,1015.29
2022-12-04T04:41:27.355Z,1015.26
2022-12-04T04:42:27.352Z,1015.28
2022-12-04T04:43:27.318Z,1015.27
2022-12-04T04:44:27.300Z,1015.29
2022-12-04T04:45:27.290Z,1015.34
2022-12-04T04:46:27.355Z,1015.29
2022-12-04T04:47:27.321Z,1015.37
2022-12-04T04:48:27.256Z,1015.43
2022-12-04T04:49:27.242Z,1015.42
2022-12-04T04:50:27.245Z,1015.47
2022-12-04T04:51:27.232Z,1015.47
2022-12-04T04:52:27.231Z,1015.45
2022-12-04T04:53:27.217Z,1015.50
2022-12-04T04:54:27.199Z,1015.49
2022-12-04T04:55:27.190Z,1015.51
2022-12-04T04:56:27.165Z,1015.44
2022-12-04T04:57:27.192Z,1015.40
2022-12-04T04:58:27.157Z,1015.38
2022-12-04T04:59:27.144Z,1015.39
2022-12-04T05:00:27.126Z,1015.37
2022-12-04T05:01:27.238Z,1015.37
2022-12-04T05:02:27.223Z,1015.35
2022-12-04T05:03:27.218Z,1015.38
2022-12-04T05:04:27.097Z,1015.36
2022-12-04T05:05:27.079Z,1015.38
2022-12-04T05:06:27.074Z,1015.34
2022-12-04T05:07:27.128Z,1015.35
2022-12-04T05:08:27.047Z,1015.36
2022-12-04T05:09:27.052Z,1015.37
2022-12-04T05:10:27.025Z,1015.41
2022-12-04T05:11:27.011Z,1015.40
2022-12-04T05:12:27.005Z,1015.41
2022-12-04T05:13:26.985Z,1015.40
2022-12-04T05:14:27.008Z,1015.44
2022-12-04T05:15:26.965Z,1015.44
2022-12-04T05:16:27.104Z,1015.41
2022-12-04T05:17:26.944Z,1015.44
2022-12-04T05:18:26.935Z,1015.44
2022-12-04T05:19:26.943Z,1015.41
2022-12-04T05:20:26.935Z,1015.42
2022-12-04T05:21:26.913Z,1015.44
2022-12-04T05:22:26.905Z,1015.42
2022-12-04T05:23:26.893Z,1015.44
2022-12-04T05:24:26.877Z,1015.42
2022-12-04T05:25:26.879Z,1015.44
2022-12-04T05:26:26.848Z,1015.42
2022-12-04T05:27:26.842Z,1015.45
2022-12-04T05:28:26.830Z,1015.45
2022-12-04T05:29:28.570Z,1015.47
2022-12-04T05:30:26.817Z,1015.40
2022-12-04T05:31:26.851Z,1015.41
2022-12-04T05:32:26.790Z,1015.39
2022-12-04T05:33:26.783Z,1015.37
2022-12-04T05:34:26.769Z,1015.30
2022-12-04T05:35:26.781Z,1015.34
2022-12-04T05:36:26.759Z,1015.34
2022-12-04T05:37:26.733Z,1015.39
2022-12-04T05:38:26.733Z,1015.36
2022-12-04T05:39:26.720Z,1015.33
2022-12-04T05:40:26.700Z,1015.33
2022-12-04T05:41:26.701Z,1015.30
2022-12-04T05:42:26.680Z,1015.32
2022-12-04T05:43:26.666Z,1015.34
2022-12-04T05:44:26.670Z,1015.36
2022-12-04T05:45:26.655Z,1015.40
2022-12-04T05:46:26.693Z,1015.34
2022-12-04T05:47:26.623Z,1015.43
2022-12-04T05:48:26.617Z,1015.46
2022-12-04T05:49:26.602Z,1015.44
2022-12-04T05:50:26.610Z,1015.46
2022-12-04T05:51:26.597Z,1015.46
2022-12-04T05:52:26.568Z,1015.44
2022-12-04T05:53:26.560Z,1015.46
2022-12-04T05:54:26.589Z,1015.48
2022-12-04T05:55:26.542Z,1015.50
2022-12-04T05:56:26.534Z,1015.48
2022-12-04T05:57:29.796Z,1015.49
2022-12-04T05:58:26.515Z,1015.42
2022-12-04T05:59:26.493Z,1015.45
2022-12-04T06:00:26.493Z,1015.37
2022-12-04T06:01:26.471Z,1015.38
2022-12-04T06:02:26.569Z,1015.35
2022-12-04T06:03:26.530Z,1015.31
2022-12-04T06:04:26.459Z,1015.32
2022-12-04T06:05:26.432Z,1015.32
2022-12-04T06:06:26.433Z,1015.35
2022-12-04T06:07:26.670Z,1015.32
2022-12-04T06:08:26.404Z,1015.35
2022-12-04T06:09:26.388Z,1015.37
2022-12-04T06:10:26.384Z,1015.40
2022-12-04T06:11:26.376Z,1015.36
2022-12-04T06:12:26.396Z,1015.39
2022-12-04T06:13:26.347Z,1015.44
2022-12-04T06:14:26.335Z,1015.41
2022-12-04T06:15:26.325Z,1015.41
2022-12-04T06:16:26.411Z,1015.44
2022-12-04T06:17:26.303Z,1015.44
2022-12-04T06:18:26.307Z,1015.39
2022-12-04T06:19:26.304Z,1015.37
2022-12-04T06:20:26.301Z,1015.38
2022-12-04T06:21:26.260Z,1015.34
2022-12-04T06:22:26.251Z,1015.34
2022-12-04T06:23:26.259Z,1015.33
2022-12-04T06:24:26.266Z,1015.35
2022-12-04T06:25:26.210Z,1015.35
2022-12-04T06:26:26.207Z,1015.40
2022-12-04T06:27:28.061Z,1015.39
2022-12-04T06:28:26.176Z,1015.38
2022-12-04T06:29:26.168Z,1015.38
2022-12-04T06:30:26.180Z,1015.28
2022-12-04T06:31:26.178Z,1015.33
2022-12-04T06:32:26.139Z,1015.34
2022-12-04T06:33:26.121Z,1015.36
2022-12-04T06:34:26.111Z,1015.32
2022-12-04T06:35:26.122Z,1015.32
2022-12-04T06:36:26.104Z,1015.34
2022-12-04T06:37:26.098Z,1015.34
2022-12-04T06:38:26.069Z,1015.39
2022-12-04T06:39:26.102Z,1015.36
2022-12-04T06:40:26.069Z,1015.35
2022-12-04T06:41:26.036Z,1015.37
2022-12-04T06:42:26.025Z,1015.40
2022-12-04T06:43:26.023Z,1015.33
2022-12-04T06:44:26.015Z,1015.34
2022-12-04T06:45:26.052Z,1015.35
2022-12-04T06:46:26.125Z,1015.35
2022-12-04T06:47:25.970Z,1015.32
2022-12-04T06:48:25.961Z,1015.33
2022-12-04T06:49:25.963Z,1015.36
2022-12-04T06:50:25.951Z,1015.35
2022-12-04T06:51:25.929Z,1015.31
2022-12-04T06:52:25.953Z,1015.31
2022-12-04T06:53:25.910Z,1015.37
2022-12-04T06:54:25.910Z,1015.37
2022-12-04T06:55:25.906Z,1015.42
2022-12-04T06:56:25.884Z,1015.37
2022-12-04T06:57:25.860Z,1015.43
2022-12-04T06:58:25.874Z,1015.40
2022-12-04T06:59:25.851Z,1015.39
2022-12-04T07:00:25.830Z,1015.42
2022-12-04T07:01:25.891Z,1015.41
2022-12-04T07:02:25.865Z,1015.40
2022-12-04T07:03:25.823Z,1015.45
2022-12-04T07:04:25.785Z,1015.40
2022-12-04T07:05:25.776Z,1015.37
2022-12-04T07:06:25.776Z,1015.38
2022-12-04T07:07:25.768Z,1015.36
2022-12-04T07:08:25.752Z,1015.41
2022-12-04T07:09:25.756Z,1015.38
2022-12-04T07:10:25.722Z,1015.37
2022-12-04T07:11:25.743Z,1015.38
2022-12-04T07:12:25.707Z,1015.40
2022-12-04T07:13:25.697Z,1015.43
2022-12-04T07:14:25.693Z,1015.38
2022-12-04T07:15:25.674Z,1015.38
2022-12-04T07:16:25.735Z,1015.37
2022-12-04T07:17:25.652Z,1015.43
2022-12-04T07:18:25.647Z,1015.37
2022-12-04T07:19:25.655Z,1015.42
2022-12-04T07:20:25.621Z,1015.36
2022-12-04T07:21:25.600Z,1015.34
2022-12-04T07:22:25.593Z,1015.35
2022-12-04T07:23:25.587Z,1015.38
2022-12-04T07:24:25.579Z,1015.37
2022-12-04T07:25:25.581Z,1015.39
2022-12-04T07:26:25.553Z,1015.37
2022-12-04T07:27:25.569Z,1015.36
2022-12-04T07:28:25.536Z,1015.37
2022-12-04T07:29:25.527Z,1015.40
2022-12-04T07:30:25.541Z,1015.41
2022-12-04T07:31:25.532Z,1015.37
2022-12-04T07:32:25.491Z,1015.35
2022-12-04T07:33:25.476Z,1015.39
2022-12-04T07:34:25.467Z,1015.39
2022-12-04T07:35:25.461Z,1015.41
2022-12-04T07:36:25.448Z,1015.37
2022-12-04T07:37:25.463Z,1015.40
2022-12-04T07:38:25.427Z,1015.32
2022-12-04T07:39:25.409Z,1015.36
2022-12-04T07:40:25.404Z,1015.38
2022-12-04T07:41:25.415Z,1015.42
2022-12-04T07:42:25.383Z,1015.41
2022-12-04T07:43:25.407Z,1015.42
2022-12-04T07:44:25.382Z,1015.42
2022-12-04T07:45:25.356Z,1015.45
2022-12-04T07:46:25.519Z,1015.44
2022-12-04T07:47:25.327Z,1015.48
2022-12-04T07:48:30.253Z,1015.50
2022-12-04T07:49:26.300Z,1015.51
2022-12-04T07:50:25.288Z,1015.52
2022-12-04T07:51:25.291Z,1015.57
2022-12-04T07:52:25.289Z,1015.56
2022-12-04T07:53:25.255Z,1015.55
2022-12-04T07:54:25.251Z,1015.51
2022-12-04T07:55:25.237Z,1015.50
2022-12-04T07:56:25.245Z,1015.50
2022-12-04T07:57:25.226Z,1015.52
2022-12-04T07:58:25.213Z,1015.49
2022-12-04T07:59:25.232Z,1015.45
2022-12-04T08:00:25.181Z,1015.52
2022-12-04T08:01:25.390Z,1015.56
2022-12-04T08:02:25.167Z,1015.62
2022-12-04T08:03:25.152Z,1015.65
2022-12-04T08:04:25.216Z,1015.67
2022-12-04T08:05:25.135Z,1015.61
2022-12-04T08:06:25.135Z,1015.62
2022-12-04T08:07:25.105Z,1015.61
2022-12-04T08:08:25.100Z,1015.62
2022-12-04T08:09:25.088Z,1015.60
2022-12-04T08:10:25.100Z,1015.67
2022-12-04T08:11:25.071Z,1015.62
2022-12-04T08:12:33.933Z,1015.64
2022-12-04T08:13:25.053Z,1015.64
2022-12-04T08:14:25.024Z,1015.67
2022-12-04T08:15:25.038Z,1015.71
2022-12-04T08:16:25.039Z,1015.72
2022-12-04T08:17:25.145Z,1015.68
2022-12-04T08:18:24.996Z,1015.70
2022-12-04T08:19:24.973Z,1015.64
2022-12-04T08:20:24.965Z,1015.65
2022-12-04T08:21:24.960Z,1015.66
2022-12-04T08:22:25.505Z,1015.61
2022-12-04T08:23:24.994Z,1015.56
2022-12-04T08:24:24.955Z,1015.52
2022-12-04T08:25:24.910Z,1015.59
2022-12-04T08:26:24.900Z,1015.60
2022-12-04T08:27:24.895Z,1015.54
2022-12-04T08:28:24.915Z,1015.55
2022-12-04T08:29:24.868Z,1015.58
2022-12-04T08:30:24.853Z,1015.56
2022-12-04T08:31:24.976Z,1015.60
2022-12-04T08:32:24.853Z,1015.58
2022-12-04T08:33:24.867Z,1015.63
2022-12-04T08:34:24.818Z,1015.62
2022-12-04T08:35:24.822Z,1015.61
2022-12-04T08:36:24.800Z,1015.61
2022-12-04T08:37:24.790Z,1015.61
2022-12-04T08:38:24.782Z,1015.67
2022-12-04T08:39:24.787Z,1015.64
2022-12-04T08:40:24.760Z,1015.66
2022-12-04T08:41:24.777Z,1015.61
2022-12-04T08:42:24.725Z,1015.66
2022-12-04T08:43:24.714Z,1015.63
2022-12-04T08:44:24.710Z,1015.58
2022-12-04T08:45:24.703Z,1015.58
2022-12-04T08:46:24.975Z,1015.56
2022-12-04T08:47:24.728Z,1015.62
2022-12-04T08:48:24.663Z,1015.58
2022-12-04T08:49:24.654Z,1015.61
2022-12-04T08:50:24.691Z,1015.60
2022-12-04T08:51:24.671Z,1015.61
2022-12-04T08:52:24.629Z,1015.58
2022-12-04T08:53:24.622Z,1015.61
2022-12-04T08:54:24.596Z,1015.59
2022-12-04T08:55:24.606Z,1015.56
2022-12-04T08:56:24.658Z,1015.57
2022-12-04T08:57:24.571Z,1015.54
2022-12-04T08:58:24.567Z,1015.52
2022-12-04T08:59:24.545Z,1015.53
2022-12-04T09:00:24.837Z,1015.49
2022-12-04T09:01:24.572Z,1015.52
2022-12-04T09:02:24.537Z,1015.50
2022-12-04T09:03:30.528Z,1015.46
2022-12-04T09:04:25.593Z,1015.38
2022-12-04T09:05:24.477Z,1015.41
2022-12-04T09:06:24.498Z,1015.40
2022-12-04T09:07:24.479Z,1015.41
2022-12-04T09:08:24.446Z,1015.41
2022-12-04T09:09:24.479Z,1015.42
2022-12-04T09:10:24.417Z,1015.43
2022-12-04T09:11:24.416Z,1015.42
2022-12-04T09:12:24.416Z,1015.43
2022-12-04T09:13:24.493Z,1015.44
2022-12-04T09:14:24.410Z,1015.45
2022-12-04T09:15:24.382Z,1015.45
2022-12-04T09:16:24.488Z,1015.45
2022-12-04T09:17:24.360Z,1015.48
2022-12-04T09:18:24.371Z,1015.46
2022-12-04T09:19:24.347Z,1015.49
2022-12-04T09:20:24.347Z,1015.51
2022-12-04T09:21:24.315Z,1015.56
2022-12-04T09:22:24.337Z,1015.61
2022-12-04T09:23:24.311Z,1015.56
2022-12-04T09:24:24.291Z,1015.64
2022-12-04T09:25:24.299Z,1015.63
2022-12-04T09:26:24.269Z,1015.73
2022-12-04T09:27:24.249Z,1015.72
2022-12-04T09:28:24.265Z,1015.68
2022-12-04T09:29:24.225Z,1015.74
2022-12-04T09:30:24.245Z,1015.76
2022-12-04T09:31:24.288Z,1015.68
2022-12-04T09:32:24.203Z,1015.64
2022-12-04T09:33:24.174Z,1015.67
2022-12-04T09:34:24.169Z,1015.60
2022-12-04T09:35:24.186Z,1015.58
2022-12-04T09:36:24.167Z,1015.57
2022-12-04T09:37:24.153Z,1015.59
2022-12-04T09:38:24.126Z,1015.59
2022-12-04T09:39:24.106Z,1015.54
2022-12-04T09:40:24.100Z,1015.56
2022-12-04T09:41:24.123Z,1015.53
2022-12-04T09:42:24.084Z,1015.54
2022-12-04T09:43:24.063Z,1015.58
2022-12-04T09:44:24.056Z,1015.56
2022-12-04T09:45:24.059Z,1015.56
2022-12-04T09:46:24.128Z,1015.48
2022-12-04T09:47:24.054Z,1015.56
2022-12-04T09:48:24.012Z,1015.51
2022-12-04T09:49:24.048Z,1015.49
2022-12-04T09:50:23.999Z,1015.53
2022-12-04T09:51:24.008Z,1015.52
2022-12-04T09:52:24.090Z,1015.50
2022-12-04T09:53:23.998Z,1015.47
2022-12-04T09:54:23.959Z,1015.51
2022-12-04T09:55:23.991Z,1015.51
2022-12-04T09:56:23.944Z,1015.47
2022-12-04T09:57:23.916Z,1015.49
2022-12-04T09:58:23.910Z,1015.43
2022-12-04T09:59:23.935Z,1015.34
2022-12-04T10:00:23.985Z,1015.42
2022-12-04T10:01:23.976Z,1015.39
2022-12-04T10:02:24.019Z,1015.35
2022-12-04T10:03:24.041Z,1015.29
2022-12-04T10:04:23.960Z,1015.29
2022-12-04T10:05:23.839Z,1015.28
2022-12-04T10:06:23.851Z,1015.20
2022-12-04T10:07:23.825Z,1015.20
2022-12-04T10:08:23.955Z,1015.20
2022-12-04T10:09:23.804Z,1015.19
2022-12-04T10:10:23.781Z,1015.20
2022-12-04T10:11:27.683Z,1015.21
2022-12-04T10:12:24.760Z,1015.22
2022-12-04T10:13:23.748Z,1015.19
2022-12-04T10:14:23.734Z,1015.21
2022-12-04T10:15:23.757Z,1015.23
2022-12-04T10:16:23.794Z,1015.18
2022-12-04T10:17:27.833Z,1015.19
2022-12-04T10:18:24.695Z,1015.19
2022-12-04T10:19:23.688Z,1015.14
2022-12-04T10:20:23.742Z,1015.10
2022-12-04T10:21:23.693Z,1015.11
2022-12-04T10:22:23.663Z,1015.11
2022-12-04T10:23:23.653Z,1015.09
2022-12-04T10:24:23.629Z,1015.10
2022-12-04T10:25:23.624Z,1015.01
2022-12-04T10:26:23.633Z,1015.06
2022-12-04T10:27:23.589Z,1014.99
2022-12-04T10:28:23.573Z,1015.07
2022-12-04T10:29:23.565Z,1015.01
2022-12-04T10:30:23.692Z,1015.04
2022-12-04T10:31:23.617Z,1015.02
2022-12-04T10:32:23.571Z,1015.01
2022-12-04T10:33:23.530Z,1014.96
2022-12-04T10:34:23.591Z,1014.92
2022-12-04T10:35:23.507Z,1014.92
2022-12-04T10:36:23.507Z,1014.94
2022-12-04T10:37:23.502Z,1014.94
2022-12-04T10:38:23.519Z,1014.92
2022-12-04T10:39:23.486Z,1014.97
2022-12-04T10:40:23.450Z,1014.99
2022-12-04T10:41:23.444Z,1015.00
2022-12-04T10:42:23.435Z,1015.01
2022-12-04T10:43:23.424Z,1015.00
2022-12-04T10:44:23.443Z,1014.92
2022-12-04T10:45:23.427Z,1014.92
2022-12-04T10:46:23.501Z,1014.93
2022-12-04T10:47:23.371Z,1014.93
2022-12-04T10:48:23.390Z,1014.96
2022-12-04T10:49:23.388Z,1014.89
2022-12-04T10:50:23.343Z,1014.95
2022-12-04T10:51:23.385Z,1014.93
2022-12-04T10:52:23.321Z,1014.92
2022-12-04T10:53:23.328Z,1014.89
2022-12-04T10:54:23.323Z,1014.89
2022-12-04T10:55:23.317Z,1014.88
2022-12-04T10:56:23.308Z,1014.92
2022-12-04T10:57:23.271Z,1014.88
2022-12-04T10:58:23.271Z,1014.88
2022-12-04T10:59:23.254Z,1014.88
2022-12-04T11:00:23.305Z,1014.84
2022-12-04T11:01:23.338Z,1014.84
2022-12-04T11:02:23.314Z,1014.86
2022-12-04T11:03:23.262Z,1014.90
2022-12-04T11:04:23.219Z,1014.89
2022-12-04T11:05:23.216Z,1014.92
2022-12-04T11:06:23.214Z,1014.89
2022-12-04T11:07:23.186Z,1014.88
2022-12-04T11:08:23.242Z,1014.84
2022-12-04T11:09:23.156Z,1014.83
2022-12-04T11:10:23.166Z,1014.80
2022-12-04T11:11:23.530Z,1014.80
2022-12-04T11:12:23.143Z,1014.77
2022-12-04T11:13:23.113Z,1014.77
2022-12-04T11:14:23.085Z,1014.71
2022-12-04T11:15:23.091Z,1014.76
2022-12-04T11:16:23.154Z,1014.73
2022-12-04T11:17:23.065Z,1014.73
2022-12-04T11:18:23.040Z,1014.80
2022-12-04T11:19:23.028Z,1014.73
2022-12-04T11:20:23.040Z,1014.75
2022-12-04T11:21:23.011Z,1014.74
2022-12-04T11:22:23.026Z,1014.75
2022-12-04T11:23:22.986Z,1014.74
2022-12-04T11:24:22.970Z,1014.74
2022-12-04T11:25:22.963Z,1014.72
2022-12-04T11:26:22.955Z,1014.73
2022-12-04T11:27:22.994Z,1014.70
2022-12-04T11:28:40.585Z,1014.71
2022-12-04T11:29:24.480Z,1014.67
2022-12-04T11:30:22.912Z,1014.65
2022-12-04T11:31:22.984Z,1014.69
2022-12-04T11:32:22.892Z,1014.70
2022-12-04T11:33:22.922Z,1014.69
2022-12-04T11:34:22.866Z,1014.71
2022-12-04T11:35:22.861Z,1014.74
2022-12-04T11:36:22.854Z,1014.72
2022-12-04T11:37:22.852Z,1014.74
2022-12-04T11:38:22.855Z,1014.68
2022-12-04T11:39:22.816Z,1014.67
2022-12-04T11:40:22.807Z,1014.65
2022-12-04T11:41:22.800Z,1014.64
2022-12-04T11:42:22.782Z,1014.61
2022-12-04T11:43:22.823Z,1014.58
2022-12-04T11:44:22.787Z,1014.64
2022-12-04T11:45:22.757Z,1014.69
2022-12-04T11:46:22.785Z,1014.70
2022-12-04T11:47:22.732Z,1014.69
2022-12-04T11:48:22.773Z,1014.69
2022-12-04T11:49:22.726Z,1014.72
2022-12-04T11:50:22.697Z,1014.64
2022-12-04T11:51:22.684Z,1014.60
2022-12-04T11:52:22.690Z,1014.60
2022-12-04T11:53:22.666Z,1014.53
2022-12-04T11:54:22.684Z,1014.55
2022-12-04T11:55:28.546Z,1014.56
2022-12-04T11:56:23.638Z,1014.54
2022-12-04T11:57:22.632Z,1014.51
2022-12-04T11:58:22.634Z,1014.52
2022-12-04T11:59:22.657Z,1014.53
2022-12-04T12:00:22.599Z,1014.50
2022-12-04T12:01:22.582Z,1014.47
2022-12-04T12:02:22.688Z,1014.43
2022-12-04T12:03:22.744Z,1014.44
2022-12-04T12:04:22.574Z,1014.45
2022-12-04T12:05:22.571Z,1014.45
2022-12-04T12:06:22.532Z,1014.50